sensor_id;sensor_type;location;lat;lon;timestamp;temperature;humidity
31819;DHT22;18384;48.860;9.188;2024-02-28T00:01:26;9.60;95.70
31819;DHT22;18384;48.860;9.188;2024-02-28T00:03:52;9.60;95.70
31819;DHT22;18384;48.860;9.188;2024-02-28T00:06:19;9.60;95.30
31819;DHT22;18384;48.860;9.188;2024-02-28T00:08:45;9.60;95.30
31819;DHT22;18384;48.860;9.188;2024-02-28T00:11:12;9.50;95.50
31819;DHT22;18384;48.860;9.188;2024-02-28T00:13:39;9.50;95.50
31819;DHT22;18384;48.860;9.188;2024-02-28T00:16:05;9.50;95.60
31819;DHT22;18384;48.860;9.188;2024-02-28T00:18:31;9.60;95.60
31819;DHT22;18384;48.860;9.188;2024-02-28T00:20:58;9.60;95.50
31819;DHT22;18384;48.860;9.188;2024-02-28T00:23:24;9.60;95.30
31819;DHT22;18384;48.860;9.188;2024-02-28T00:25:50;9.60;95.40
31819;DHT22;18384;48.860;9.188;2024-02-28T00:28:17;9.60;95.00
31819;DHT22;18384;48.860;9.188;2024-02-28T00:30:43;9.60;95.20
31819;DHT22;18384;48.860;9.188;2024-02-28T00:33:09;9.60;95.10
31819;DHT22;18384;48.860;9.188;2024-02-28T00:35:35;9.70;94.90
31819;DHT22;18384;48.860;9.188;2024-02-28T00:38:01;9.70;94.70
31819;DHT22;18384;48.860;9.188;2024-02-28T00:40:29;9.70;94.80
31819;DHT22;18384;48.860;9.188;2024-02-28T00:42:56;9.70;94.80
31819;DHT22;18384;48.860;9.188;2024-02-28T00:45:23;9.70;94.80
31819;DHT22;18384;48.860;9.188;2024-02-28T00:47:49;9.70;94.60
31819;DHT22;18384;48.860;9.188;2024-02-28T00:50:15;9.70;94.60
31819;DHT22;18384;48.860;9.188;2024-02-28T00:52:41;9.70;94.50
31819;DHT22;18384;48.860;9.188;2024-02-28T00:55:07;9.60;94.40
31819;DHT22;18384;48.860;9.188;2024-02-28T00:57:33;9.70;94.50
31819;DHT22;18384;48.860;9.188;2024-02-28T01:00:00;9.70;94.50
31819;DHT22;18384;48.860;9.188;2024-02-28T01:02:26;9.70;94.60
31819;DHT22;18384;48.860;9.188;2024-02-28T01:04:52;9.70;94.50
31819;DHT22;18384;48.860;9.188;2024-02-28T01:07:18;9.60;94.60
31819;DHT22;18384;48.860;9.188;2024-02-28T01:09:44;9.60;94.70
31819;DHT22;18384;48.860;9.188;2024-02-28T01:12:10;9.60;94.80
31819;DHT22;18384;48.860;9.188;2024-02-28T01:14:36;9.60;94.80
31819;DHT22;18384;48.860;9.188;2024-02-28T01:17:03;9.60;95.10
31819;DHT22;18384;48.860;9.188;2024-02-28T01:19:29;9.60;95.00
31819;DHT22;18384;48.860;9.188;2024-02-28T01:21:55;9.60;95.00
31819;DHT22;18384;48.860;9.188;2024-02-28T01:24:21;9.70;95.00
31819;DHT22;18384;48.860;9.188;2024-02-28T01:26:48;9.60;95.00
31819;DHT22;18384;48.860;9.188;2024-02-28T01:29:14;9.50;95.00
31819;DHT22;18384;48.860;9.188;2024-02-28T01:31:40;9.60;95.00
31819;DHT22;18384;48.860;9.188;2024-02-28T01:34:06;9.60;95.10
31819;DHT22;18384;48.860;9.188;2024-02-28T01:36:33;9.50;95.20
31819;DHT22;18384;48.860;9.188;2024-02-28T01:38:59;9.50;95.10
31819;DHT22;18384;48.860;9.188;2024-02-28T01:41:25;9.60;95.20
31819;DHT22;18384;48.860;9.188;2024-02-28T01:43:51;9.60;95.20
31819;DHT22;18384;48.860;9.188;2024-02-28T01:46:28;9.60;95.10
31819;DHT22;18384;48.860;9.188;2024-02-28T01:48:56;9.60;94.90
31819;DHT22;18384;48.860;9.188;2024-02-28T01:51:25;9.60;94.90
31819;DHT22;18384;48.860;9.188;2024-02-28T01:53:55;9.50;94.90
31819;DHT22;18384;48.860;9.188;2024-02-28T01:56:23;9.60;95.00
31819;DHT22;18384;48.860;9.188;2024-02-28T01:58:52;9.60;94.90
31819;DHT22;18384;48.860;9.188;2024-02-28T02:01:20;9.50;94.90
31819;DHT22;18384;48.860;9.188;2024-02-28T02:03:46;9.60;94.90
31819;DHT22;18384;48.860;9.188;2024-02-28T02:06:12;9.60;94.70
31819;DHT22;18384;48.860;9.188;2024-02-28T02:08:38;9.50;94.90
31819;DHT22;18384;48.860;9.188;2024-02-28T02:11:05;9.60;95.20
31819;DHT22;18384;48.860;9.188;2024-02-28T02:13:34;9.70;95.50
31819;DHT22;18384;48.860;9.188;2024-02-28T02:16:01;9.70;95.60
31819;DHT22;18384;48.860;9.188;2024-02-28T02:18:27;9.60;95.50
31819;DHT22;18384;48.860;9.188;2024-02-28T02:21:00;9.70;95.70
31819;DHT22;18384;48.860;9.188;2024-02-28T02:23:30;9.70;95.60
31819;DHT22;18384;48.860;9.188;2024-02-28T02:25:56;9.60;95.60
31819;DHT22;18384;48.860;9.188;2024-02-28T02:28:22;9.60;95.60
31819;DHT22;18384;48.860;9.188;2024-02-28T02:30:48;9.60;95.60
31819;DHT22;18384;48.860;9.188;2024-02-28T02:33:14;9.60;95.70
31819;DHT22;18384;48.860;9.188;2024-02-28T02:35:40;9.50;95.70
31819;DHT22;18384;48.860;9.188;2024-02-28T02:38:06;9.60;95.70
31819;DHT22;18384;48.860;9.188;2024-02-28T02:40:33;9.50;95.70
31819;DHT22;18384;48.860;9.188;2024-02-28T02:42:59;9.50;95.80
31819;DHT22;18384;48.860;9.188;2024-02-28T02:45:25;9.50;95.80
31819;DHT22;18384;48.860;9.188;2024-02-28T02:47:51;9.50;95.90
31819;DHT22;18384;48.860;9.188;2024-02-28T02:50:17;9.40;95.80
31819;DHT22;18384;48.860;9.188;2024-02-28T02:52:43;9.40;95.90
31819;DHT22;18384;48.860;9.188;2024-02-28T02:55:09;9.40;95.90
31819;DHT22;18384;48.860;9.188;2024-02-28T02:57:35;9.60;95.70
31819;DHT22;18384;48.860;9.188;2024-02-28T03:00:02;9.50;95.70
31819;DHT22;18384;48.860;9.188;2024-02-28T03:02:28;9.40;95.60
31819;DHT22;18384;48.860;9.188;2024-02-28T03:04:54;9.40;95.70
31819;DHT22;18384;48.860;9.188;2024-02-28T03:07:20;9.40;95.70
31819;DHT22;18384;48.860;9.188;2024-02-28T03:09:46;9.40;95.80
31819;DHT22;18384;48.860;9.188;2024-02-28T03:12:12;9.40;95.80
31819;DHT22;18384;48.860;9.188;2024-02-28T03:14:39;9.30;95.90
31819;DHT22;18384;48.860;9.188;2024-02-28T03:17:05;9.20;96.00
31819;DHT22;18384;48.860;9.188;2024-02-28T03:19:31;9.20;96.00
31819;DHT22;18384;48.860;9.188;2024-02-28T03:21:57;9.30;96.00
31819;DHT22;18384;48.860;9.188;2024-02-28T03:24:23;9.30;96.00
31819;DHT22;18384;48.860;9.188;2024-02-28T03:26:49;9.30;96.00
31819;DHT22;18384;48.860;9.188;2024-02-28T03:29:16;9.30;96.00
31819;DHT22;18384;48.860;9.188;2024-02-28T03:31:42;9.30;95.90
31819;DHT22;18384;48.860;9.188;2024-02-28T03:34:08;9.30;95.80
31819;DHT22;18384;48.860;9.188;2024-02-28T03:36:35;9.30;95.70
31819;DHT22;18384;48.860;9.188;2024-02-28T03:39:02;9.40;95.70
31819;DHT22;18384;48.860;9.188;2024-02-28T03:41:29;9.40;95.50
31819;DHT22;18384;48.860;9.188;2024-02-28T03:43:55;9.40;95.50
31819;DHT22;18384;48.860;9.188;2024-02-28T03:46:21;9.40;95.30
31819;DHT22;18384;48.860;9.188;2024-02-28T03:48:47;9.30;95.10
31819;DHT22;18384;48.860;9.188;2024-02-28T03:51:13;9.30;95.50
31819;DHT22;18384;48.860;9.188;2024-02-28T03:53:40;9.30;95.60
31819;DHT22;18384;48.860;9.188;2024-02-28T03:56:06;9.30;95.40
31819;DHT22;18384;48.860;9.188;2024-02-28T03:58:33;9.30;95.40
31819;DHT22;18384;48.860;9.188;2024-02-28T04:00:59;9.30;95.40
31819;DHT22;18384;48.860;9.188;2024-02-28T04:03:25;9.30;95.50
31819;DHT22;18384;48.860;9.188;2024-02-28T04:05:51;9.30;95.50
31819;DHT22;18384;48.860;9.188;2024-02-28T04:08:17;9.30;95.50
31819;DHT22;18384;48.860;9.188;2024-02-28T04:10:43;9.20;95.50
31819;DHT22;18384;48.860;9.188;2024-02-28T04:13:10;9.20;95.50
31819;DHT22;18384;48.860;9.188;2024-02-28T04:15:36;9.20;95.70
31819;DHT22;18384;48.860;9.188;2024-02-28T04:18:03;9.20;95.80
31819;DHT22;18384;48.860;9.188;2024-02-28T04:20:29;9.20;95.80
31819;DHT22;18384;48.860;9.188;2024-02-28T04:22:55;9.10;95.90
31819;DHT22;18384;48.860;9.188;2024-02-28T04:25:21;9.10;96.10
31819;DHT22;18384;48.860;9.188;2024-02-28T04:27:47;9.10;96.00
31819;DHT22;18384;48.860;9.188;2024-02-28T04:30:14;9.00;96.10
31819;DHT22;18384;48.860;9.188;2024-02-28T04:32:40;9.00;96.10
31819;DHT22;18384;48.860;9.188;2024-02-28T04:35:06;9.00;96.30
31819;DHT22;18384;48.860;9.188;2024-02-28T04:37:32;9.00;96.30
31819;DHT22;18384;48.860;9.188;2024-02-28T04:40:00;9.00;96.30
31819;DHT22;18384;48.860;9.188;2024-02-28T04:42:27;9.00;96.30
31819;DHT22;18384;48.860;9.188;2024-02-28T04:44:53;9.00;96.40
31819;DHT22;18384;48.860;9.188;2024-02-28T04:47:19;9.00;96.30
31819;DHT22;18384;48.860;9.188;2024-02-28T04:49:45;9.00;96.30
31819;DHT22;18384;48.860;9.188;2024-02-28T04:52:11;9.00;96.20
31819;DHT22;18384;48.860;9.188;2024-02-28T04:54:40;8.80;96.40
31819;DHT22;18384;48.860;9.188;2024-02-28T04:57:06;8.80;96.40
31819;DHT22;18384;48.860;9.188;2024-02-28T04:59:32;8.80;96.50
31819;DHT22;18384;48.860;9.188;2024-02-28T05:01:58;8.80;96.50
31819;DHT22;18384;48.860;9.188;2024-02-28T05:04:24;8.80;96.50
31819;DHT22;18384;48.860;9.188;2024-02-28T05:06:50;8.70;96.40
31819;DHT22;18384;48.860;9.188;2024-02-28T05:09:17;8.70;96.60
31819;DHT22;18384;48.860;9.188;2024-02-28T05:11:44;8.70;96.40
31819;DHT22;18384;48.860;9.188;2024-02-28T05:14:11;8.70;96.60
31819;DHT22;18384;48.860;9.188;2024-02-28T05:16:37;8.70;96.50
31819;DHT22;18384;48.860;9.188;2024-02-28T05:19:03;8.60;96.60
31819;DHT22;18384;48.860;9.188;2024-02-28T05:21:30;8.60;96.60
31819;DHT22;18384;48.860;9.188;2024-02-28T05:23:56;8.60;96.70
31819;DHT22;18384;48.860;9.188;2024-02-28T05:26:22;8.60;96.70
31819;DHT22;18384;48.860;9.188;2024-02-28T05:28:48;8.50;96.70
31819;DHT22;18384;48.860;9.188;2024-02-28T05:31:47;8.50;96.80
31819;DHT22;18384;48.860;9.188;2024-02-28T05:34:13;8.50;96.70
31819;DHT22;18384;48.860;9.188;2024-02-28T05:36:41;8.50;96.60
31819;DHT22;18384;48.860;9.188;2024-02-28T05:39:07;8.50;96.60
31819;DHT22;18384;48.860;9.188;2024-02-28T05:41:34;8.50;96.50
31819;DHT22;18384;48.860;9.188;2024-02-28T05:44:00;8.40;96.50
31819;DHT22;18384;48.860;9.188;2024-02-28T05:46:26;8.40;96.60
31819;DHT22;18384;48.860;9.188;2024-02-28T05:48:52;8.40;96.60
31819;DHT22;18384;48.860;9.188;2024-02-28T05:51:19;8.40;96.70
31819;DHT22;18384;48.860;9.188;2024-02-28T05:53:47;8.40;96.60
31819;DHT22;18384;48.860;9.188;2024-02-28T05:56:16;8.00;96.50
31819;DHT22;18384;48.860;9.188;2024-02-28T05:58:46;8.40;96.60
31819;DHT22;18384;48.860;9.188;2024-02-28T06:01:17;8.40;96.70
31819;DHT22;18384;48.860;9.188;2024-02-28T06:03:46;8.40;96.60
31819;DHT22;18384;48.860;9.188;2024-02-28T06:06:13;8.40;96.50
31819;DHT22;18384;48.860;9.188;2024-02-28T06:08:40;8.40;96.50
31819;DHT22;18384;48.860;9.188;2024-02-28T06:11:07;8.30;96.70
31819;DHT22;18384;48.860;9.188;2024-02-28T06:13:33;8.40;96.60
31819;DHT22;18384;48.860;9.188;2024-02-28T06:16:00;8.40;96.60
31819;DHT22;18384;48.860;9.188;2024-02-28T06:18:26;8.40;96.40
31819;DHT22;18384;48.860;9.188;2024-02-28T06:20:53;8.40;96.50
31819;DHT22;18384;48.860;9.188;2024-02-28T06:23:21;8.40;96.50
31819;DHT22;18384;48.860;9.188;2024-02-28T06:25:48;8.40;96.50
31819;DHT22;18384;48.860;9.188;2024-02-28T06:28:14;8.40;96.50
31819;DHT22;18384;48.860;9.188;2024-02-28T06:30:40;8.40;96.40
31819;DHT22;18384;48.860;9.188;2024-02-28T06:33:06;8.50;96.50
31819;DHT22;18384;48.860;9.188;2024-02-28T06:35:34;8.40;96.50
31819;DHT22;18384;48.860;9.188;2024-02-28T06:38:01;8.50;96.50
31819;DHT22;18384;48.860;9.188;2024-02-28T06:40:27;8.50;96.40
31819;DHT22;18384;48.860;9.188;2024-02-28T06:42:54;8.50;96.40
31819;DHT22;18384;48.860;9.188;2024-02-28T06:45:20;8.50;96.30
31819;DHT22;18384;48.860;9.188;2024-02-28T06:47:46;8.50;96.40
31819;DHT22;18384;48.860;9.188;2024-02-28T06:50:13;8.50;96.40
31819;DHT22;18384;48.860;9.188;2024-02-28T06:52:41;8.60;96.20
31819;DHT22;18384;48.860;9.188;2024-02-28T06:55:07;8.50;96.40
31819;DHT22;18384;48.860;9.188;2024-02-28T06:57:40;8.60;96.30
31819;DHT22;18384;48.860;9.188;2024-02-28T07:00:09;8.60;96.30
31819;DHT22;18384;48.860;9.188;2024-02-28T07:02:37;8.60;96.20
31819;DHT22;18384;48.860;9.188;2024-02-28T07:05:04;8.60;96.20
31819;DHT22;18384;48.860;9.188;2024-02-28T07:07:33;8.70;96.10
31819;DHT22;18384;48.860;9.188;2024-02-28T07:09:59;8.70;96.10
31819;DHT22;18384;48.860;9.188;2024-02-28T07:12:25;8.70;95.90
31819;DHT22;18384;48.860;9.188;2024-02-28T07:14:52;8.70;95.90
31819;DHT22;18384;48.860;9.188;2024-02-28T07:17:18;8.70;96.00
31819;DHT22;18384;48.860;9.188;2024-02-28T07:19:44;8.70;96.00
31819;DHT22;18384;48.860;9.188;2024-02-28T07:22:10;8.70;96.00
31819;DHT22;18384;48.860;9.188;2024-02-28T07:24:36;8.70;96.10
31819;DHT22;18384;48.860;9.188;2024-02-28T07:27:03;8.70;96.00
31819;DHT22;18384;48.860;9.188;2024-02-28T07:29:29;8.70;96.00
31819;DHT22;18384;48.860;9.188;2024-02-28T07:31:55;8.80;96.10
31819;DHT22;18384;48.860;9.188;2024-02-28T07:34:22;8.70;95.90
31819;DHT22;18384;48.860;9.188;2024-02-28T07:36:48;8.70;95.70
31819;DHT22;18384;48.860;9.188;2024-02-28T07:39:14;8.70;95.70
31819;DHT22;18384;48.860;9.188;2024-02-28T07:41:40;8.70;95.80
31819;DHT22;18384;48.860;9.188;2024-02-28T07:44:08;8.70;95.60
31819;DHT22;18384;48.860;9.188;2024-02-28T07:46:34;8.70;95.60
31819;DHT22;18384;48.860;9.188;2024-02-28T07:49:01;8.70;95.70
31819;DHT22;18384;48.860;9.188;2024-02-28T07:51:28;8.70;95.80
31819;DHT22;18384;48.860;9.188;2024-02-28T07:53:54;8.70;95.80
31819;DHT22;18384;48.860;9.188;2024-02-28T07:56:21;8.80;95.80
31819;DHT22;18384;48.860;9.188;2024-02-28T07:58:48;8.80;95.70
31819;DHT22;18384;48.860;9.188;2024-02-28T08:01:14;8.70;95.70
31819;DHT22;18384;48.860;9.188;2024-02-28T08:03:41;8.80;95.80
31819;DHT22;18384;48.860;9.188;2024-02-28T08:06:07;8.80;95.70
31819;DHT22;18384;48.860;9.188;2024-02-28T08:08:35;8.70;95.80
31819;DHT22;18384;48.860;9.188;2024-02-28T08:11:01;8.80;95.70
31819;DHT22;18384;48.860;9.188;2024-02-28T08:13:27;8.70;95.70
31819;DHT22;18384;48.860;9.188;2024-02-28T08:15:54;8.70;95.80
31819;DHT22;18384;48.860;9.188;2024-02-28T08:18:21;8.60;95.80
31819;DHT22;18384;48.860;9.188;2024-02-28T08:20:47;8.60;95.90
31819;DHT22;18384;48.860;9.188;2024-02-28T08:23:15;8.60;96.00
31819;DHT22;18384;48.860;9.188;2024-02-28T08:25:41;8.70;95.90
31819;DHT22;18384;48.860;9.188;2024-02-28T08:28:07;8.70;95.80
31819;DHT22;18384;48.860;9.188;2024-02-28T08:30:33;8.70;95.80
31819;DHT22;18384;48.860;9.188;2024-02-28T08:32:59;8.70;95.90
31819;DHT22;18384;48.860;9.188;2024-02-28T08:35:25;8.80;95.80
31819;DHT22;18384;48.860;9.188;2024-02-28T08:37:52;8.80;95.90
31819;DHT22;18384;48.860;9.188;2024-02-28T08:40:18;8.90;95.80
31819;DHT22;18384;48.860;9.188;2024-02-28T08:42:45;8.90;95.70
31819;DHT22;18384;48.860;9.188;2024-02-28T08:46:17;7.40;95.30
31819;DHT22;18384;48.860;9.188;2024-02-28T08:48:43;9.00;95.60
31819;DHT22;18384;48.860;9.188;2024-02-28T08:51:09;9.00;95.60
31819;DHT22;18384;48.860;9.188;2024-02-28T08:53:36;9.00;95.40
31819;DHT22;18384;48.860;9.188;2024-02-28T08:56:02;9.10;95.40
31819;DHT22;18384;48.860;9.188;2024-02-28T08:58:29;9.10;95.40
31819;DHT22;18384;48.860;9.188;2024-02-28T09:00:55;9.20;95.40
31819;DHT22;18384;48.860;9.188;2024-02-28T09:03:21;9.20;95.10
31819;DHT22;18384;48.860;9.188;2024-02-28T09:05:48;9.20;95.20
31819;DHT22;18384;48.860;9.188;2024-02-28T09:08:14;9.20;95.10
31819;DHT22;18384;48.860;9.188;2024-02-28T09:10:40;9.20;95.00
31819;DHT22;18384;48.860;9.188;2024-02-28T09:13:06;9.20;95.10
31819;DHT22;18384;48.860;9.188;2024-02-28T09:15:33;9.30;94.80
31819;DHT22;18384;48.860;9.188;2024-02-28T09:18:00;9.20;94.70
31819;DHT22;18384;48.860;9.188;2024-02-28T09:20:26;9.30;94.80
31819;DHT22;18384;48.860;9.188;2024-02-28T09:22:52;9.30;94.70
31819;DHT22;18384;48.860;9.188;2024-02-28T09:25:18;9.30;94.70
31819;DHT22;18384;48.860;9.188;2024-02-28T09:27:47;9.40;94.70
31819;DHT22;18384;48.860;9.188;2024-02-28T09:30:14;9.40;94.50
31819;DHT22;18384;48.860;9.188;2024-02-28T09:32:41;9.50;94.60
31819;DHT22;18384;48.860;9.188;2024-02-28T09:35:08;9.50;94.50
31819;DHT22;18384;48.860;9.188;2024-02-28T09:37:37;9.60;94.20
31819;DHT22;18384;48.860;9.188;2024-02-28T09:40:04;9.60;94.50
31819;DHT22;18384;48.860;9.188;2024-02-28T09:42:33;9.60;94.00
31819;DHT22;18384;48.860;9.188;2024-02-28T09:45:00;9.70;94.50
31819;DHT22;18384;48.860;9.188;2024-02-28T09:47:27;9.70;93.70
31819;DHT22;18384;48.860;9.188;2024-02-28T09:49:53;9.80;93.40
31819;DHT22;18384;48.860;9.188;2024-02-28T09:52:21;9.80;93.20
31819;DHT22;18384;48.860;9.188;2024-02-28T09:54:47;9.90;93.30
31819;DHT22;18384;48.860;9.188;2024-02-28T09:57:13;9.90;93.40
31819;DHT22;18384;48.860;9.188;2024-02-28T09:59:42;9.90;93.50
31819;DHT22;18384;48.860;9.188;2024-02-28T10:02:10;9.90;93.20
31819;DHT22;18384;48.860;9.188;2024-02-28T10:04:37;10.00;93.10
31819;DHT22;18384;48.860;9.188;2024-02-28T10:07:11;10.00;93.30
31819;DHT22;18384;48.860;9.188;2024-02-28T10:09:41;10.00;93.10
31819;DHT22;18384;48.860;9.188;2024-02-28T10:12:08;10.00;93.20
31819;DHT22;18384;48.860;9.188;2024-02-28T10:14:34;10.10;93.10
31819;DHT22;18384;48.860;9.188;2024-02-28T10:17:00;10.10;93.50
31819;DHT22;18384;48.860;9.188;2024-02-28T10:19:26;10.10;93.80
31819;DHT22;18384;48.860;9.188;2024-02-28T10:21:52;10.10;93.90
31819;DHT22;18384;48.860;9.188;2024-02-28T10:24:19;10.00;93.70
31819;DHT22;18384;48.860;9.188;2024-02-28T10:26:47;10.00;93.80
31819;DHT22;18384;48.860;9.188;2024-02-28T10:29:23;9.90;93.90
31819;DHT22;18384;48.860;9.188;2024-02-28T10:31:57;9.80;93.90
31819;DHT22;18384;48.860;9.188;2024-02-28T10:34:23;9.80;93.90
31819;DHT22;18384;48.860;9.188;2024-02-28T10:36:49;9.80;93.50
31819;DHT22;18384;48.860;9.188;2024-02-28T10:39:15;9.80;93.80
31819;DHT22;18384;48.860;9.188;2024-02-28T10:41:42;9.80;93.80
31819;DHT22;18384;48.860;9.188;2024-02-28T10:44:12;9.80;93.80
31819;DHT22;18384;48.860;9.188;2024-02-28T10:46:39;9.80;94.20
31819;DHT22;18384;48.860;9.188;2024-02-28T10:49:05;9.80;94.30
31819;DHT22;18384;48.860;9.188;2024-02-28T10:51:35;9.80;93.80
31819;DHT22;18384;48.860;9.188;2024-02-28T10:54:11;10.60;93.90
31819;DHT22;18384;48.860;9.188;2024-02-28T10:56:39;9.80;93.60
31819;DHT22;18384;48.860;9.188;2024-02-28T10:59:10;9.80;93.60
31819;DHT22;18384;48.860;9.188;2024-02-28T11:01:47;9.70;93.70
31819;DHT22;18384;48.860;9.188;2024-02-28T11:04:16;9.70;93.90
31819;DHT22;18384;48.860;9.188;2024-02-28T11:06:56;9.70;93.90
31819;DHT22;18384;48.860;9.188;2024-02-28T11:09:24;9.70;93.80
31819;DHT22;18384;48.860;9.188;2024-02-28T11:11:52;9.60;93.80
31819;DHT22;18384;48.860;9.188;2024-02-28T11:14:18;9.30;93.80
31819;DHT22;18384;48.860;9.188;2024-02-28T11:16:58;9.60;93.90
31819;DHT22;18384;48.860;9.188;2024-02-28T11:19:28;9.60;93.80
31819;DHT22;18384;48.860;9.188;2024-02-28T11:22:00;9.60;94.00
31819;DHT22;18384;48.860;9.188;2024-02-28T11:24:35;9.60;93.80
31819;DHT22;18384;48.860;9.188;2024-02-28T11:27:05;9.50;93.80
31819;DHT22;18384;48.860;9.188;2024-02-28T11:29:31;9.50;93.80
31819;DHT22;18384;48.860;9.188;2024-02-28T11:31:57;9.60;94.00
31819;DHT22;18384;48.860;9.188;2024-02-28T11:34:23;9.50;94.00
31819;DHT22;18384;48.860;9.188;2024-02-28T11:36:51;9.60;94.10
31819;DHT22;18384;48.860;9.188;2024-02-28T11:39:18;9.50;94.00
31819;DHT22;18384;48.860;9.188;2024-02-28T11:41:47;9.60;93.90
31819;DHT22;18384;48.860;9.188;2024-02-28T11:44:16;9.60;93.90
31819;DHT22;18384;48.860;9.188;2024-02-28T11:46:47;9.60;94.00
31819;DHT22;18384;48.860;9.188;2024-02-28T11:49:14;9.60;93.90
31819;DHT22;18384;48.860;9.188;2024-02-28T11:51:44;9.50;94.00
31819;DHT22;18384;48.860;9.188;2024-02-28T11:54:11;9.60;94.10
31819;DHT22;18384;48.860;9.188;2024-02-28T11:56:38;9.60;93.90
31819;DHT22;18384;48.860;9.188;2024-02-28T11:59:05;9.50;94.00
31819;DHT22;18384;48.860;9.188;2024-02-28T12:01:37;9.60;94.00
31819;DHT22;18384;48.860;9.188;2024-02-28T12:04:06;9.60;94.00
31819;DHT22;18384;48.860;9.188;2024-02-28T12:06:39;9.60;94.00
31819;DHT22;18384;48.860;9.188;2024-02-28T12:09:13;9.70;94.30
31819;DHT22;18384;48.860;9.188;2024-02-28T12:11:42;9.60;93.80
31819;DHT22;18384;48.860;9.188;2024-02-28T12:14:09;9.70;93.90
31819;DHT22;18384;48.860;9.188;2024-02-28T12:16:38;9.70;93.80
31819;DHT22;18384;48.860;9.188;2024-02-28T12:19:12;8.50;93.50
31819;DHT22;18384;48.860;9.188;2024-02-28T12:21:39;9.70;93.80
31819;DHT22;18384;48.860;9.188;2024-02-28T12:24:10;9.70;93.80
31819;DHT22;18384;48.860;9.188;2024-02-28T12:26:36;9.70;93.70
31819;DHT22;18384;48.860;9.188;2024-02-28T12:29:03;9.70;93.80
31819;DHT22;18384;48.860;9.188;2024-02-28T12:31:29;9.70;93.70
31819;DHT22;18384;48.860;9.188;2024-02-28T12:33:55;9.80;93.70
31819;DHT22;18384;48.860;9.188;2024-02-28T12:36:21;9.80;93.50
31819;DHT22;18384;48.860;9.188;2024-02-28T12:38:48;9.80;93.50
31819;DHT22;18384;48.860;9.188;2024-02-28T12:41:14;9.80;93.70
31819;DHT22;18384;48.860;9.188;2024-02-28T12:43:41;9.70;93.50
31819;DHT22;18384;48.860;9.188;2024-02-28T12:46:07;9.70;94.10
31819;DHT22;18384;48.860;9.188;2024-02-28T12:48:37;9.70;93.60
31819;DHT22;18384;48.860;9.188;2024-02-28T12:51:04;9.80;93.70
31819;DHT22;18384;48.860;9.188;2024-02-28T12:53:31;9.60;93.70
31819;DHT22;18384;48.860;9.188;2024-02-28T12:55:57;9.50;93.90
31819;DHT22;18384;48.860;9.188;2024-02-28T12:58:23;9.50;93.80
31819;DHT22;18384;48.860;9.188;2024-02-28T13:00:50;9.50;93.80
31819;DHT22;18384;48.860;9.188;2024-02-28T13:03:16;9.50;94.20
31819;DHT22;18384;48.860;9.188;2024-02-28T13:05:43;9.50;94.10
31819;DHT22;18384;48.860;9.188;2024-02-28T13:08:09;9.60;93.90
31819;DHT22;18384;48.860;9.188;2024-02-28T13:10:35;9.70;93.70
31819;DHT22;18384;48.860;9.188;2024-02-28T13:13:05;9.60;93.70
31819;DHT22;18384;48.860;9.188;2024-02-28T13:15:32;9.60;93.40
31819;DHT22;18384;48.860;9.188;2024-02-28T13:17:58;9.50;93.60
31819;DHT22;18384;48.860;9.188;2024-02-28T13:20:24;10.20;93.80
31819;DHT22;18384;48.860;9.188;2024-02-28T13:22:50;9.60;93.60
31819;DHT22;18384;48.860;9.188;2024-02-28T13:25:17;9.70;93.60
31819;DHT22;18384;48.860;9.188;2024-02-28T13:27:45;9.60;93.50
31819;DHT22;18384;48.860;9.188;2024-02-28T13:30:13;9.70;93.60
31819;DHT22;18384;48.860;9.188;2024-02-28T13:32:40;9.60;93.70
31819;DHT22;18384;48.860;9.188;2024-02-28T13:35:07;9.60;93.80
31819;DHT22;18384;48.860;9.188;2024-02-28T13:37:33;9.60;93.60
31819;DHT22;18384;48.860;9.188;2024-02-28T13:39:59;9.60;93.60
31819;DHT22;18384;48.860;9.188;2024-02-28T13:42:26;9.70;93.80
31819;DHT22;18384;48.860;9.188;2024-02-28T13:44:52;9.70;93.80
31819;DHT22;18384;48.860;9.188;2024-02-28T13:47:18;9.80;93.50
31819;DHT22;18384;48.860;9.188;2024-02-28T13:49:44;9.80;93.40
31819;DHT22;18384;48.860;9.188;2024-02-28T13:52:10;9.90;93.50
31819;DHT22;18384;48.860;9.188;2024-02-28T13:54:36;9.90;93.30
31819;DHT22;18384;48.860;9.188;2024-02-28T13:57:03;9.80;93.60
31819;DHT22;18384;48.860;9.188;2024-02-28T13:59:30;9.80;93.90
31819;DHT22;18384;48.860;9.188;2024-02-28T14:01:56;9.80;93.40
31819;DHT22;18384;48.860;9.188;2024-02-28T14:04:24;9.80;93.10
31819;DHT22;18384;48.860;9.188;2024-02-28T14:06:50;9.80;93.30
31819;DHT22;18384;48.860;9.188;2024-02-28T14:09:17;9.80;93.00
31819;DHT22;18384;48.860;9.188;2024-02-28T14:11:43;9.80;93.10
31819;DHT22;18384;48.860;9.188;2024-02-28T14:14:11;9.80;93.10
31819;DHT22;18384;48.860;9.188;2024-02-28T14:16:41;9.80;92.90
31819;DHT22;18384;48.860;9.188;2024-02-28T14:19:08;9.80;93.00
31819;DHT22;18384;48.860;9.188;2024-02-28T14:21:34;9.80;92.80
31819;DHT22;18384;48.860;9.188;2024-02-28T14:24:00;9.80;93.00
31819;DHT22;18384;48.860;9.188;2024-02-28T14:26:26;9.90;93.20
31819;DHT22;18384;48.860;9.188;2024-02-28T14:28:53;9.90;92.70
31819;DHT22;18384;48.860;9.188;2024-02-28T14:31:20;10.00;92.80
31819;DHT22;18384;48.860;9.188;2024-02-28T14:33:47;10.00;92.50
31819;DHT22;18384;48.860;9.188;2024-02-28T14:36:13;10.00;92.60
31819;DHT22;18384;48.860;9.188;2024-02-28T14:38:40;10.00;92.30
31819;DHT22;18384;48.860;9.188;2024-02-28T14:41:06;10.00;92.80
31819;DHT22;18384;48.860;9.188;2024-02-28T14:43:33;10.10;93.00
31819;DHT22;18384;48.860;9.188;2024-02-28T14:45:59;10.10;92.90
31819;DHT22;18384;48.860;9.188;2024-02-28T14:48:25;10.20;93.00
31819;DHT22;18384;48.860;9.188;2024-02-28T14:50:51;10.10;92.70
31819;DHT22;18384;48.860;9.188;2024-02-28T14:53:19;10.20;92.20
31819;DHT22;18384;48.860;9.188;2024-02-28T14:55:46;10.20;92.30
31819;DHT22;18384;48.860;9.188;2024-02-28T14:58:13;10.20;92.40
31819;DHT22;18384;48.860;9.188;2024-02-28T15:00:39;10.10;92.20
31819;DHT22;18384;48.860;9.188;2024-02-28T15:03:06;10.10;92.20
31819;DHT22;18384;48.860;9.188;2024-02-28T15:05:32;10.10;92.20
31819;DHT22;18384;48.860;9.188;2024-02-28T15:07:58;10.10;92.40
31819;DHT22;18384;48.860;9.188;2024-02-28T15:10:24;10.10;92.50
31819;DHT22;18384;48.860;9.188;2024-02-28T15:12:50;10.10;92.80
31819;DHT22;18384;48.860;9.188;2024-02-28T15:15:16;10.10;92.50
31819;DHT22;18384;48.860;9.188;2024-02-28T15:17:42;10.00;92.80
31819;DHT22;18384;48.860;9.188;2024-02-28T15:20:10;10.00;92.60
31819;DHT22;18384;48.860;9.188;2024-02-28T15:22:37;9.90;92.40
31819;DHT22;18384;48.860;9.188;2024-02-28T15:25:04;9.90;92.60
31819;DHT22;18384;48.860;9.188;2024-02-28T15:27:31;9.90;92.50
31819;DHT22;18384;48.860;9.188;2024-02-28T15:29:58;12.00;93.70
31819;DHT22;18384;48.860;9.188;2024-02-28T15:32:24;9.80;93.20
31819;DHT22;18384;48.860;9.188;2024-02-28T15:34:50;9.90;93.10
31819;DHT22;18384;48.860;9.188;2024-02-28T15:37:17;9.90;93.20
31819;DHT22;18384;48.860;9.188;2024-02-28T15:39:43;9.90;93.00
31819;DHT22;18384;48.860;9.188;2024-02-28T15:42:11;9.90;93.00
31819;DHT22;18384;48.860;9.188;2024-02-28T15:44:38;9.90;93.20